sensor_id;sensor_type;location;lat;lon;timestamp;temperature;humidity
5621;DHT22;2832;50.864;12.186;2022-07-24T00:00:53;24.10;87.60
5621;DHT22;2832;50.864;12.186;2022-07-24T00:03:22;24.10;87.60
5621;DHT22;2832;50.864;12.186;2022-07-24T00:05:50;24.00;87.50
5621;DHT22;2832;50.864;12.186;2022-07-24T00:08:18;24.10;87.40
5621;DHT22;2832;50.864;12.186;2022-07-24T00:10:46;24.10;87.10
5621;DHT22;2832;50.864;12.186;2022-07-24T00:13:14;24.10;86.70
5621;DHT22;2832;50.864;12.186;2022-07-24T00:15:41;24.10;86.50
5621;DHT22;2832;50.864;12.186;2022-07-24T00:18:10;24.10;86.30
5621;DHT22;2832;50.864;12.186;2022-07-24T00:20:38;24.00;86.40
5621;DHT22;2832;50.864;12.186;2022-07-24T00:23:07;23.90;86.30
5621;DHT22;2832;50.864;12.186;2022-07-24T00:25:34;23.90;86.30
5621;DHT22;2832;50.864;12.186;2022-07-24T00:28:02;23.90;86.30
5621;DHT22;2832;50.864;12.186;2022-07-24T00:30:30;23.90;86.20
5621;DHT22;2832;50.864;12.186;2022-07-24T00:32:57;23.90;86.30
5621;DHT22;2832;50.864;12.186;2022-07-24T00:35:26;23.90;86.30
5621;DHT22;2832;50.864;12.186;2022-07-24T00:37:54;23.80;86.50
5621;DHT22;2832;50.864;12.186;2022-07-24T00:40:22;23.80;86.70
5621;DHT22;2832;50.864;12.186;2022-07-24T00:42:50;23.70;86.80
5621;DHT22;2832;50.864;12.186;2022-07-24T00:45:18;23.80;86.80
5621;DHT22;2832;50.864;12.186;2022-07-24T00:47:45;23.70;86.70
5621;DHT22;2832;50.864;12.186;2022-07-24T00:50:13;23.70;86.90
5621;DHT22;2832;50.864;12.186;2022-07-24T00:52:43;23.60;86.80
5621;DHT22;2832;50.864;12.186;2022-07-24T00:55:11;23.60;86.90
5621;DHT22;2832;50.864;12.186;2022-07-24T00:57:39;23.60;86.80
5621;DHT22;2832;50.864;12.186;2022-07-24T01:00:11;23.70;86.70
5621;DHT22;2832;50.864;12.186;2022-07-24T01:02:39;23.60;86.60
5621;DHT22;2832;50.864;12.186;2022-07-24T01:05:08;23.60;86.80
5621;DHT22;2832;50.864;12.186;2022-07-24T01:07:37;23.50;86.80
5621;DHT22;2832;50.864;12.186;2022-07-24T01:10:07;23.50;86.80
5621;DHT22;2832;50.864;12.186;2022-07-24T01:12:36;23.50;87.00
5621;DHT22;2832;50.864;12.186;2022-07-24T01:15:05;23.60;86.80
5621;DHT22;2832;50.864;12.186;2022-07-24T01:17:34;23.60;86.60
5621;DHT22;2832;50.864;12.186;2022-07-24T01:20:06;23.60;86.40
5621;DHT22;2832;50.864;12.186;2022-07-24T01:22:35;23.60;86.30
5621;DHT22;2832;50.864;12.186;2022-07-24T01:25:04;23.60;86.20
5621;DHT22;2832;50.864;12.186;2022-07-24T01:27:32;23.60;86.30
5621;DHT22;2832;50.864;12.186;2022-07-24T01:29:59;23.50;86.30
5621;DHT22;2832;50.864;12.186;2022-07-24T01:32:27;23.40;86.40
5621;DHT22;2832;50.864;12.186;2022-07-24T01:34:55;23.40;86.50
5621;DHT22;2832;50.864;12.186;2022-07-24T02:35:54;22.80;86.30
5621;DHT22;2832;50.864;12.186;2022-07-24T02:38:22;22.80;86.30
5621;DHT22;2832;50.864;12.186;2022-07-24T02:40:49;22.80;86.20
5621;DHT22;2832;50.864;12.186;2022-07-24T02:43:16;22.80;86.10
5621;DHT22;2832;50.864;12.186;2022-07-24T02:45:44;22.80;86.00
5621;DHT22;2832;50.864;12.186;2022-07-24T02:48:12;22.80;85.90
5621;DHT22;2832;50.864;12.186;2022-07-24T02:50:39;22.80;86.10
5621;DHT22;2832;50.864;12.186;2022-07-24T02:53:09;22.80;86.10
5621;DHT22;2832;50.864;12.186;2022-07-24T02:55:36;22.60;86.10
5621;DHT22;2832;50.864;12.186;2022-07-24T02:58:03;22.60;86.20
5621;DHT22;2832;50.864;12.186;2022-07-24T03:00:31;22.60;86.10
5621;DHT22;2832;50.864;12.186;2022-07-24T03:02:59;22.60;86.20
5621;DHT22;2832;50.864;12.186;2022-07-24T03:05:27;22.60;86.10
5621;DHT22;2832;50.864;12.186;2022-07-24T03:07:54;22.60;86.20
5621;DHT22;2832;50.864;12.186;2022-07-24T03:10:23;22.60;86.30
5621;DHT22;2832;50.864;12.186;2022-07-24T03:12:51;22.60;86.20
5621;DHT22;2832;50.864;12.186;2022-07-24T03:15:18;22.60;86.80
5621;DHT22;2832;50.864;12.186;2022-07-24T03:17:50;22.50;86.20
5621;DHT22;2832;50.864;12.186;2022-07-24T03:20:18;22.50;86.20
5621;DHT22;2832;50.864;12.186;2022-07-24T03:22:47;22.50;86.30
5621;DHT22;2832;50.864;12.186;2022-07-24T03:25:14;22.60;86.10
5621;DHT22;2832;50.864;12.186;2022-07-24T03:27:44;22.60;86.20
5621;DHT22;2832;50.864;12.186;2022-07-24T03:30:12;22.60;86.20
5621;DHT22;2832;50.864;12.186;2022-07-24T03:32:40;22.50;86.10
5621;DHT22;2832;50.864;12.186;2022-07-24T03:35:08;22.50;86.10
5621;DHT22;2832;50.864;12.186;2022-07-24T05:37:53;22.10;87.80
5621;DHT22;2832;50.864;12.186;2022-07-24T05:40:20;22.10;87.80
5621;DHT22;2832;50.864;12.186;2022-07-24T05:42:48;22.00;87.70
5621;DHT22;2832;50.864;12.186;2022-07-24T05:45:15;22.00;87.80
5621;DHT22;2832;50.864;12.186;2022-07-24T05:47:43;22.00;87.70
5621;DHT22;2832;50.864;12.186;2022-07-24T05:50:13;22.00;87.80
5621;DHT22;2832;50.864;12.186;2022-07-24T05:52:41;22.00;88.00
5621;DHT22;2832;50.864;12.186;2022-07-24T05:55:10;22.00;87.70
5621;DHT22;2832;50.864;12.186;2022-07-24T05:57:38;22.10;87.70
5621;DHT22;2832;50.864;12.186;2022-07-24T06:00:06;22.10;87.70
5621;DHT22;2832;50.864;12.186;2022-07-24T06:02:34;22.10;87.60
5621;DHT22;2832;50.864;12.186;2022-07-24T06:05:02;22.10;87.60
5621;DHT22;2832;50.864;12.186;2022-07-24T06:07:30;22.20;87.60
5621;DHT22;2832;50.864;12.186;2022-07-24T06:09:57;22.10;87.60
5621;DHT22;2832;50.864;12.186;2022-07-24T06:12:26;22.20;87.70
5621;DHT22;2832;50.864;12.186;2022-07-24T06:14:54;22.30;87.60
5621;DHT22;2832;50.864;12.186;2022-07-24T06:17:21;22.30;87.70
5621;DHT22;2832;50.864;12.186;2022-07-24T06:19:49;22.30;87.80
5621;DHT22;2832;50.864;12.186;2022-07-24T06:22:16;22.30;88.00
5621;DHT22;2832;50.864;12.186;2022-07-24T06:24:44;22.30;88.10
5621;DHT22;2832;50.864;12.186;2022-07-24T06:27:12;22.40;88.20
5621;DHT22;2832;50.864;12.186;2022-07-24T06:29:41;22.40;88.10
5621;DHT22;2832;50.864;12.186;2022-07-24T06:32:09;22.50;88.20
5621;DHT22;2832;50.864;12.186;2022-07-24T06:34:36;22.50;88.00
5621;DHT22;2832;50.864;12.186;2022-07-24T10:40:49;24.40;82.00
5621;DHT22;2832;50.864;12.186;2022-07-24T10:43:18;24.60;77.00
5621;DHT22;2832;50.864;12.186;2022-07-24T10:46:09;24.80;76.50
5621;DHT22;2832;50.864;12.186;2022-07-24T10:48:36;24.90;75.70
5621;DHT22;2832;50.864;12.186;2022-07-24T10:51:08;25.00;75.00
5621;DHT22;2832;50.864;12.186;2022-07-24T10:53:51;25.00;74.00
5621;DHT22;2832;50.864;12.186;2022-07-24T10:56:24;25.00;74.20
5621;DHT22;2832;50.864;12.186;2022-07-24T10:59:04;25.00;77.00
5621;DHT22;2832;50.864;12.186;2022-07-24T11:01:37;25.00;75.80
5621;DHT22;2832;50.864;12.186;2022-07-24T11:04:25;25.30;70.60
5621;DHT22;2832;50.864;12.186;2022-07-24T11:06:55;25.40;69.20
5621;DHT22;2832;50.864;12.186;2022-07-24T11:09:24;25.50;68.70
5621;DHT22;2832;50.864;12.186;2022-07-24T11:12:14;25.50;68.80
5621;DHT22;2832;50.864;12.186;2022-07-24T11:14:52;25.50;68.40
5621;DHT22;2832;50.864;12.186;2022-07-24T11:17:45;25.50;70.10
5621;DHT22;2832;50.864;12.186;2022-07-24T11:20:15;25.50;68.40
5621;DHT22;2832;50.864;12.186;2022-07-24T11:22:45;25.50;70.30
5621;DHT22;2832;50.864;12.186;2022-07-24T11:25:16;25.60;69.90
5621;DHT22;2832;50.864;12.186;2022-07-24T11:27:52;25.50;71.80
5621;DHT22;2832;50.864;12.186;2022-07-24T11:30:24;25.50;75.70
5621;DHT22;2832;50.864;12.186;2022-07-24T11:32:51;25.40;71.20
5621;DHT22;2832;50.864;12.186;2022-07-24T11:35:27;25.30;74.30
5621;DHT22;2832;50.864;12.186;2022-07-24T11:37:55;25.20;77.40
5621;DHT22;2832;50.864;12.186;2022-07-24T13:40:46;27.00;65.60
5621;DHT22;2832;50.864;12.186;2022-07-24T13:43:14;27.10;65.10
5621;DHT22;2832;50.864;12.186;2022-07-24T13:45:42;27.10;64.90
5621;DHT22;2832;50.864;12.186;2022-07-24T13:48:10;27.30;65.00
5621;DHT22;2832;50.864;12.186;2022-07-24T13:50:37;27.20;64.80
5621;DHT22;2832;50.864;12.186;2022-07-24T13:53:05;27.00;69.30
5621;DHT22;2832;50.864;12.186;2022-07-24T13:55:34;26.80;70.40
5621;DHT22;2832;50.864;12.186;2022-07-24T13:58:06;26.70;70.20
5621;DHT22;2832;50.864;12.186;2022-07-24T14:00:35;26.80;66.50
5621;DHT22;2832;50.864;12.186;2022-07-24T14:03:03;26.70;71.60
5621;DHT22;2832;50.864;12.186;2022-07-24T14:05:31;26.60;69.20
5621;DHT22;2832;50.864;12.186;2022-07-24T14:07:59;26.90;65.80
5621;DHT22;2832;50.864;12.186;2022-07-24T14:10:26;27.30;64.60
5621;DHT22;2832;50.864;12.186;2022-07-24T14:12:54;27.50;64.50
5621;DHT22;2832;50.864;12.186;2022-07-24T14:15:23;27.30;65.90
5621;DHT22;2832;50.864;12.186;2022-07-24T14:17:51;27.30;64.60
5621;DHT22;2832;50.864;12.186;2022-07-24T14:20:18;27.40;64.50
5621;DHT22;2832;50.864;12.186;2022-07-24T14:22:46;27.40;63.90
5621;DHT22;2832;50.864;12.186;2022-07-24T14:25:14;27.50;64.10
5621;DHT22;2832;50.864;12.186;2022-07-24T14:27:42;27.40;64.20
5621;DHT22;2832;50.864;12.186;2022-07-24T14:30:10;27.50;63.80
5621;DHT22;2832;50.864;12.186;2022-07-24T14:32:40;27.60;63.60
5621;DHT22;2832;50.864;12.186;2022-07-24T14:35:08;27.50;64.00
5621;DHT22;2832;50.864;12.186;2022-07-24T14:37:37;27.40;64.90
5621;DHT22;2832;50.864;12.186;2022-07-24T15:41:43;27.90;62.70
5621;DHT22;2832;50.864;12.186;2022-07-24T15:44:11;27.90;62.30
5621;DHT22;2832;50.864;12.186;2022-07-24T15:46:38;28.00;62.50
5621;DHT22;2832;50.864;12.186;2022-07-24T15:49:07;28.10;61.80
5621;DHT22;2832;50.864;12.186;2022-07-24T15:51:36;28.10;62.20
5621;DHT22;2832;50.864;12.186;2022-07-24T15:54:05;28.10;62.10
5621;DHT22;2832;50.864;12.186;2022-07-24T15:56:33;28.00;61.90
5621;DHT22;2832;50.864;12.186;2022-07-24T15:59:02;28.00;62.10
5621;DHT22;2832;50.864;12.186;2022-07-24T16:01:29;28.00;62.00
5621;DHT22;2832;50.864;12.186;2022-07-24T16:03:58;28.00;62.40
5621;DHT22;2832;50.864;12.186;2022-07-24T16:06:25;28.20;62.50
5621;DHT22;2832;50.864;12.186;2022-07-24T16:08:53;28.20;61.60
5621;DHT22;2832;50.864;12.186;2022-07-24T16:11:21;28.20;61.70
5621;DHT22;2832;50.864;12.186;2022-07-24T16:13:48;28.10;61.80
5621;DHT22;2832;50.864;12.186;2022-07-24T16:16:17;28.20;62.10
5621;DHT22;2832;50.864;12.186;2022-07-24T16:18:45;28.30;61.80
5621;DHT22;2832;50.864;12.186;2022-07-24T16:21:13;28.40;62.00
5621;DHT22;2832;50.864;12.186;2022-07-24T16:23:41;28.40;61.20
5621;DHT22;2832;50.864;12.186;2022-07-24T16:26:12;28.20;61.30
5621;DHT22;2832;50.864;12.186;2022-07-24T16:28:39;28.40;61.20
5621;DHT22;2832;50.864;12.186;2022-07-24T16:31:07;28.50;60.90
5621;DHT22;2832;50.864;12.186;2022-07-24T16:33:36;28.40;61.00
5621;DHT22;2832;50.864;12.186;2022-07-24T16:36:05;28.50;60.80
5621;DHT22;2832;50.864;12.186;2022-07-24T16:38:33;28.50;61.10
5621;DHT22;2832;50.864;12.186;2022-07-24T18:41:27;27.80;61.70
5621;DHT22;2832;50.864;12.186;2022-07-24T18:43:55;27.70;61.70
5621;DHT22;2832;50.864;12.186;2022-07-24T18:46:22;27.70;62.20
5621;DHT22;2832;50.864;12.186;2022-07-24T18:48:50;27.70;62.30
5621;DHT22;2832;50.864;12.186;2022-07-24T18:51:17;27.60;62.40
5621;DHT22;2832;50.864;12.186;2022-07-24T18:53:48;27.60;62.60
5621;DHT22;2832;50.864;12.186;2022-07-24T18:56:17;27.60;62.70
5621;DHT22;2832;50.864;12.186;2022-07-24T18:58:46;27.70;62.70
5621;DHT22;2832;50.864;12.186;2022-07-24T19:01:15;27.70;63.00
5621;DHT22;2832;50.864;12.186;2022-07-24T19:03:42;27.70;62.80
5621;DHT22;2832;50.864;12.186;2022-07-24T19:06:10;27.60;62.30
5621;DHT22;2832;50.864;12.186;2022-07-24T19:08:38;27.60;62.60
5621;DHT22;2832;50.864;12.186;2022-07-24T19:11:06;27.70;63.50
5621;DHT22;2832;50.864;12.186;2022-07-24T19:13:33;27.70;64.50
5621;DHT22;2832;50.864;12.186;2022-07-24T19:16:03;27.80;65.10
5621;DHT22;2832;50.864;12.186;2022-07-24T19:18:31;27.80;65.30
5621;DHT22;2832;50.864;12.186;2022-07-24T19:21:00;27.80;65.40
5621;DHT22;2832;50.864;12.186;2022-07-24T19:23:27;27.80;65.50
5621;DHT22;2832;50.864;12.186;2022-07-24T19:25:55;27.80;65.70
5621;DHT22;2832;50.864;12.186;2022-07-24T19:28:23;27.80;65.90
5621;DHT22;2832;50.864;12.186;2022-07-24T19:30:51;27.80;65.90
5621;DHT22;2832;50.864;12.186;2022-07-24T19:33:20;27.80;66.00
5621;DHT22;2832;50.864;12.186;2022-07-24T19:35:48;27.80;66.10
5621;DHT22;2832;50.864;12.186;2022-07-24T19:38:16;27.80;66.00
5621;DHT22;2832;50.864;12.186;2022-07-24T19:40:43;27.80;66.10
5621;DHT22;2832;50.864;12.186;2022-07-24T19:43:11;27.70;65.90
5621;DHT22;2832;50.864;12.186;2022-07-24T19:45:39;27.70;66.00
5621;DHT22;2832;50.864;12.186;2022-07-24T19:48:06;27.70;66.00
5621;DHT22;2832;50.864;12.186;2022-07-24T19:50:37;27.70;65.90
5621;DHT22;2832;50.864;12.186;2022-07-24T19:53:07;27.70;65.90
5621;DHT22;2832;50.864;12.186;2022-07-24T19:55:35;27.60;65.80
5621;DHT22;2832;50.864;12.186;2022-07-24T19:58:02;27.70;66.00
5621;DHT22;2832;50.864;12.186;2022-07-24T20:00:30;27.70;65.90
5621;DHT22;2832;50.864;12.186;2022-07-24T20:02:58;27.60;65.70
5621;DHT22;2832;50.864;12.186;2022-07-24T20:05:26;27.60;65.80
5621;DHT22;2832;50.864;12.186;2022-07-24T20:08:02;27.60;65.80
5621;DHT22;2832;50.864;12.186;2022-07-24T20:10:31;27.60;65.80
5621;DHT22;2832;50.864;12.186;2022-07-24T20:12:59;27.60;65.80
5621;DHT22;2832;50.864;12.186;2022-07-24T20:15:26;27.60;66.00
5621;DHT22;2832;50.864;12.186;2022-07-24T20:17:54;27.60;66.10
5621;DHT22;2832;50.864;12.186;2022-07-24T20:20:22;27.50;66.10
5621;DHT22;2832;50.864;12.186;2022-07-24T20:22:49;27.50;66.20
5621;DHT22;2832;50.864;12.186;2022-07-24T20:25:22;27.50;66.20
5621;DHT22;2832;50.864;12.186;2022-07-24T20:27:50;27.60;66.20
5621;DHT22;2832;50.864;12.186;2022-07-24T20:30:17;27.60;66.30
5621;DHT22;2832;50.864;12.186;2022-07-24T20:32:45;27.50;66.30
5621;DHT22;2832;50.864;12.186;2022-07-24T20:35:13;27.60;66.30
5621;DHT22;2832;50.864;12.186;2022-07-24T20:37:40;27.60;66.40
5621;DHT22;2832;50.864;12.186;2022-07-24T20:40:08;27.50;66.40
5621;DHT22;2832;50.864;12.186;2022-07-24T21:41:13;27.20;69.60
5621;DHT22;2832;50.864;12.186;2022-07-24T21:43:42;27.20;69.30
5621;DHT22;2832;50.864;12.186;2022-07-24T21:46:11;27.20;69.30
5621;DHT22;2832;50.864;12.186;2022-07-24T21:48:39;27.20;69.40
5621;DHT22;2832;50.864;12.186;2022-07-24T21:51:06;27.10;69.30
5621;DHT22;2832;50.864;12.186;2022-07-24T21:53:34;27.10;69.30
5621;DHT22;2832;50.864;12.186;2022-07-24T21:56:03;27.10;69.30
5621;DHT22;2832;50.864;12.186;2022-07-24T21:58:32;27.10;69.30
5621;DHT22;2832;50.864;12.186;2022-07-24T22:01:00;27.10;69.60
5621;DHT22;2832;50.864;12.186;2022-07-24T22:03:29;27.10;69.70
5621;DHT22;2832;50.864;12.186;2022-07-24T22:05:56;27.00;69.80
5621;DHT22;2832;50.864;12.186;2022-07-24T22:08:24;27.00;70.00
5621;DHT22;2832;50.864;12.186;2022-07-24T22:10:52;27.00;70.10
5621;DHT22;2832;50.864;12.186;2022-07-24T22:13:19;27.00;70.10
5621;DHT22;2832;50.864;12.186;2022-07-24T22:15:49;27.00;70.10
5621;DHT22;2832;50.864;12.186;2022-07-24T22:18:17;26.90;70.20
5621;DHT22;2832;50.864;12.186;2022-07-24T22:20:44;26.90;70.30
5621;DHT22;2832;50.864;12.186;2022-07-24T22:23:12;26.90;70.50
5621;DHT22;2832;50.864;12.186;2022-07-24T22:25:41;26.80;70.50
5621;DHT22;2832;50.864;12.186;2022-07-24T22:28:08;26.90;70.40
5621;DHT22;2832;50.864;12.186;2022-07-24T22:30:36;26.90;70.30
5621;DHT22;2832;50.864;12.186;2022-07-24T22:33:05;26.80;70.20
5621;DHT22;2832;50.864;12.186;2022-07-24T22:35:33;26.80;70.20
5621;DHT22;2832;50.864;12.186;2022-07-24T22:38:02;26.70;70.20
5621;DHT22;2832;50.864;12.186;2022-07-24T22:40:30;26.80;70.40
